Time;durP1;ratioP1;P1;durP2;ratioP2;P2;SDS_P1;SDS_P2;PMS_P1;PMS_P2;Temp;Humidity;BMP_temperature;BMP_pressure;BME280_temperature;BME280_humidity;BME280_pressure;Samples;Min_cycle;Max_cycle;Signal;HPM_P1;HPM_P2
2024/01/01 00:09:19;;;;;;;26.38;12.15;;;6.90;99.90;;;;;;5117681;27;20912;-83
2024/01/01 00:11:47;;;;;;;28.55;13.15;;;6.80;99.90;;;;;;5111659;27;20079;-80
2024/01/01 00:14:16;;;;;;;26.23;13.65;;;6.80;99.90;;;;;;5101899;27;21057;-81
2024/01/01 00:16:44;;;;;;;25.52;13.25;;;6.70;99.90;;;;;;5111616;27;20257;-81
2024/01/01 00:19:13;;;;;;;26.08;13.23;;;6.60;99.90;;;;;;5126617;27;20052;-81
2024/01/01 00:21:42;;;;;;;26.42;13.05;;;6.90;99.90;;;;;;5118747;27;20063;-80
2024/01/01 00:24:11;;;;;;;25.30;12.05;;;6.90;99.90;;;;;;5096675;27;20056;-80
2024/01/01 00:26:40;;;;;;;22.55;12.48;;;6.70;99.90;;;;;;5119423;27;20048;-80
2024/01/01 00:29:09;;;;;;;30.35;13.52;;;6.70;99.90;;;;;;5110210;27;20131;-81
2024/01/01 00:31:50;;;;;;;25.92;11.98;;;6.70;99.90;;;;;;5103346;27;20051;-81
2024/01/01 00:34:19;;;;;;;25.80;12.68;;;6.70;99.90;;;;;;5103766;27;20613;-80
2024/01/01 00:36:48;;;;;;;27.92;13.57;;;6.70;99.90;;;;;;5125126;27;20055;-81
2024/01/01 00:39:17;;;;;;;24.48;12.40;;;6.70;99.90;;;;;;5108246;27;20047;-80
2024/01/01 00:41:47;;;;;;;26.42;12.52;;;6.70;99.90;;;;;;5094761;27;20054;-79
2024/01/01 00:44:16;;;;;;;24.60;12.07;;;6.60;99.90;;;;;;5112355;27;20822;-79
2024/01/01 00:46:44;;;;;;;23.55;11.60;;;6.70;99.90;;;;;;5111128;27;20507;-80
2024/01/01 00:49:13;;;;;;;23.00;12.02;;;6.80;99.90;;;;;;5119777;27;20837;-81
2024/01/01 00:51:41;;;;;;;23.83;11.98;;;6.70;99.90;;;;;;5094200;27;20062;-80
2024/01/01 00:54:11;;;;;;;28.55;12.80;;;6.70;99.90;;;;;;5126123;27;20085;-80
2024/01/01 00:56:40;;;;;;;32.67;13.70;;;6.70;99.90;;;;;;5095457;27;20115;-79
2024/01/01 00:59:10;;;;;;;29.20;13.90;;;6.70;99.90;;;;;;5103431;27;20047;-80
2024/01/01 01:01:38;;;;;;;27.58;14.25;;;6.60;99.90;;;;;;5121051;27;20043;-81
2024/01/01 01:04:07;;;;;;;27.35;12.98;;;6.60;99.90;;;;;;5095788;27;20053;-80
2024/01/01 01:06:35;;;;;;;24.73;12.43;;;6.60;99.90;;;;;;5111497;27;20063;-80
2024/01/01 01:09:09;;;;;;;24.27;11.65;;;6.60;99.90;;;;;;5112300;27;20100;-79
2024/01/01 01:11:38;;;;;;;23.52;10.77;;;7.10;99.90;;;;;;5096306;27;20597;-79
2024/01/01 01:14:06;;;;;;;24.90;11.95;;;6.90;99.90;;;;;;5106143;28;20059;-80
2024/01/01 01:16:36;;;;;;;22.83;10.45;;;7.00;99.90;;;;;;5104237;28;20146;-81
2024/01/01 01:19:05;;;;;;;21.60;11.02;;;7.00;99.90;;;;;;5104445;27;20493;-81
2024/01/01 01:21:34;;;;;;;24.77;11.27;;;7.00;99.90;;;;;;5085431;27;20112;-79
2024/01/01 01:24:03;;;;;;;21.48;10.95;;;7.10;99.90;;;;;;5098059;27;20169;-80
2024/01/01 01:26:31;;;;;;;23.55;10.10;;;7.00;99.90;;;;;;5104992;27;22585;-80
2024/01/01 01:29:00;;;;;;;24.20;10.43;;;7.10;99.90;;;;;;5085362;28;20524;-79
2024/01/01 01:31:29;;;;;;;19.65;10.77;;;7.10;99.90;;;;;;5116844;27;20051;-79
2024/01/01 01:33:58;;;;;;;20.35;10.57;;;7.10;99.90;;;;;;5098910;27;20533;-81
2024/01/01 01:36:27;;;;;;;21.95;9.85;;;7.20;99.90;;;;;;5113911;27;20507;-79
2024/01/01 01:38:55;;;;;;;22.48;11.60;;;7.20;99.90;;;;;;5099137;27;20529;-79
2024/01/01 01:41:24;;;;;;;26.38;12.73;;;7.20;99.90;;;;;;5086757;28;20525;-80
2024/01/01 01:43:52;;;;;;;23.83;10.80;;;7.20;99.90;;;;;;5110401;27;20100;-78
2024/01/01 01:46:21;;;;;;;20.35;10.55;;;7.20;99.90;;;;;;5101953;27;20085;-78
2024/01/01 01:48:50;;;;;;;22.45;10.55;;;7.20;99.90;;;;;;5098868;27;20048;-79
2024/01/01 01:51:20;;;;;;;22.30;11.40;;;7.30;99.90;;;;;;5100625;27;20105;-78
2024/01/01 01:53:48;;;;;;;29.05;11.07;;;7.20;99.90;;;;;;5091084;27;20174;-78
2024/01/01 01:56:19;;;;;;;22.70;10.20;;;7.30;99.90;;;;;;5107690;28;20105;-79
2024/01/01 01:58:50;;;;;;;22.25;10.30;;;7.20;99.90;;;;;;5107131;27;20047;-79
2024/01/01 02:01:19;;;;;;;20.85;9.90;;;7.10;99.90;;;;;;5099294;27;20539;-79
2024/01/01 02:03:48;;;;;;;19.92;10.63;;;7.10;99.90;;;;;;5086728;28;20086;-79
2024/01/01 02:06:16;;;;;;;22.95;10.40;;;7.10;99.90;;;;;;5083838;28;20052;-80
2024/01/01 02:08:46;;;;;;;21.35;11.00;;;7.10;99.90;;;;;;5083525;28;20527;-82
2024/01/01 02:11:15;;;;;;;20.33;10.35;;;7.10;99.90;;;;;;5102696;27;20060;-80
2024/01/01 02:13:43;;;;;;;22.25;10.70;;;7.10;99.90;;;;;;5095235;27;20047;-80
2024/01/01 02:16:12;;;;;;;22.15;10.95;;;7.10;99.90;;;;;;5099919;27;20047;-82
2024/01/01 02:18:42;;;;;;;23.65;10.88;;;7.20;99.90;;;;;;5095713;27;20547;-79
2024/01/01 02:21:11;;;;;;;23.45;11.57;;;7.10;99.90;;;;;;5090771;27;20051;-80
2024/01/01 02:23:40;;;;;;;22.30;10.30;;;7.10;99.90;;;;;;5082075;28;20089;-80
2024/01/01 02:26:09;;;;;;;19.65;10.30;;;7.10;99.90;;;;;;5092482;27;20496;-79
2024/01/01 02:28:38;;;;;;;25.42;12.25;;;7.10;99.90;;;;;;5088004;28;20079;-80
2024/01/01 02:31:06;;;;;;;23.55;10.02;;;7.10;99.90;;;;;;5087942;27;20152;-78
2024/01/01 02:33:34;;;;;;;23.73;10.57;;;7.00;99.90;;;;;;5107690;27;20052;-82
2024/01/01 02:36:03;;;;;;;24.45;11.23;;;7.00;99.90;;;;;;5085250;27;20055;-79
2024/01/01 02:38:32;;;;;;;21.50;10.20;;;7.00;99.90;;;;;;5089055;27;20055;-80
2024/01/01 02:41:02;;;;;;;19.65;10.18;;;7.00;99.90;;;;;;5078066;28;20124;-80
2024/01/01 02:43:30;;;;;;;23.30;11.38;;;6.90;99.90;;;;;;5080725;27;20123;-79
2024/01/01 02:45:59;;;;;;;19.65;9.52;;;6.90;99.90;;;;;;5101264;27;20408;-80
2024/01/01 02:48:28;;;;;;;23.85;11.10;;;6.90;99.90;;;;;;5084325;28;20060;-79
2024/01/01 02:50:57;;;;;;;22.23;10.55;;;7.00;99.90;;;;;;5079318;28;20062;-79
2024/01/01 02:53:25;;;;;;;25.08;12.07;;;7.00;99.90;;;;;;5090379;28;20182;-80
2024/01/01 02:55:53;;;;;;;22.20;11.25;;;7.00;99.90;;;;;;5097560;27;20065;-78
2024/01/01 02:58:24;;;;;;;20.88;10.48;;;7.00;99.90;;;;;;5098332;27;20808;-78
2024/01/01 03:00:54;;;;;;;24.23;12.27;;;7.00;99.90;;;;;;5100099;27;20822;-81
2024/01/01 03:03:22;;;;;;;23.08;11.02;;;7.00;99.90;;;;;;5110654;27;20291;-80
2024/01/01 03:05:54;;;;;;;24.92;11.60;;;6.90;99.90;;;;;;5084924;28;20101;-80
2024/01/01 03:08:24;;;;;;;21.60;11.07;;;7.00;99.90;;;;;;5116905;27;20432;-79
2024/01/01 03:10:53;;;;;;;24.23;12.55;;;7.00;99.90;;;;;;5080716;27;20043;-80
2024/01/01 03:13:21;;;;;;;22.33;11.75;;;6.90;99.90;;;;;;5096913;28;20051;-81
2024/01/01 03:15:51;;;;;;;22.33;11.48;;;7.00;99.90;;;;;;5080042;28;20111;-78
2024/01/01 03:18:21;;;;;;;24.80;12.35;;;6.90;99.90;;;;;;5098006;28;20055;-80
2024/01/01 03:20:49;;;;;;;21.98;11.70;;;6.90;99.90;;;;;;5106648;27;20142;-78
2024/01/01 03:23:18;;;;;;;21.42;10.32;;;6.90;99.90;;;;;;5087714;28;20051;-80
2024/01/01 03:25:46;;;;;;;18.60;9.98;;;6.90;99.90;;;;;;5093149;27;20079;-78
2024/01/01 03:28:15;;;;;;;23.80;11.30;;;6.90;99.90;;;;;;5088764;28;20061;-78
2024/01/01 03:30:45;;;;;;;23.88;11.25;;;7.00;99.90;;;;;;5095958;27;20056;-80
2024/01/01 03:33:14;;;;;;;22.38;10.80;;;7.00;99.90;;;;;;5078144;28;20059;-79
2024/01/01 03:35:45;;;;;;;25.05;11.27;;;6.90;99.90;;;;;;5082198;28;20051;-81
2024/01/01 03:38:14;;;;;;;21.42;9.77;;;7.00;99.90;;;;;;5110130;27;20075;-82
2024/01/01 03:40:43;;;;;;;20.83;10.20;;;7.00;99.90;;;;;;5094290;27;20504;-80
2024/01/01 03:43:11;;;;;;;20.58;10.38;;;7.10;99.90;;;;;;5077907;28;20670;-79
2024/01/01 03:45:41;;;;;;;22.35;10.60;;;7.10;99.90;;;;;;5069359;28;20085;-80
2024/01/01 03:48:12;;;;;;;19.90;10.60;;;7.10;99.90;;;;;;5062020;28;20094;-80
2024/01/01 03:50:42;;;;;;;25.10;11.80;;;7.00;99.90;;;;;;5060820;28;20052;-80
2024/01/01 03:53:11;;;;;;;25.45;13.27;;;7.00;99.90;;;;;;5081239;27;20647;-80
2024/01/01 03:55:39;;;;;;;21.17;11.98;;;6.90;99.90;;;;;;5083163;28;20044;-80
2024/01/01 03:58:08;;;;;;;23.98;12.20;;;7.00;99.90;;;;;;5075959;28;20047;-78
2024/01/01 04:00:38;;;;;;;27.75;13.43;;;7.00;99.90;;;;;;5078520;28;20073;-79
2024/01/01 04:03:06;;;;;;;28.83;13.25;;;7.00;99.90;;;;;;5063584;28;20075;-80
2024/01/01 04:05:35;;;;;;;27.90;13.77;;;7.00;99.90;;;;;;5072148;28;20051;-79
2024/01/01 04:08:06;;;;;;;31.30;14.10;;;7.00;99.90;;;;;;5072753;28;22606;-82
2024/01/01 04:10:35;;;;;;;33.58;13.60;;;6.90;99.90;;;;;;5091852;27;20084;-80
2024/01/01 04:13:04;;;;;;;30.17;14.05;;;6.80;99.90;;;;;;5063501;28;20047;-80
2024/01/01 04:15:32;;;;;;;25.50;12.43;;;6.70;99.90;;;;;;5081405;28;20507;-80
2024/01/01 04:18:01;;;;;;;26.83;13.43;;;6.70;99.90;;;;;;5065253;28;20059;-80
2024/01/01 04:20:29;;;;;;;27.83;14.15;;;6.70;99.90;;;;;;5065324;28;20059;-81
2024/01/01 04:22:58;;;;;;;27.20;13.02;;;6.70;99.90;;;;;;5074355;28;20047;-82
2024/01/01 04:25:29;;;;;;;28.63;13.82;;;6.60;99.90;;;;;;5081385;28;20132;-82
2024/01/01 04:27:57;;;;;;;28.65;14.02;;;6.60;99.90;;;;;;5080968;28;20079;-81
2024/01/01 04:30:26;;;;;;;27.95;13.65;;;6.60;99.90;;;;;;5076307;28;20044;-82
2024/01/01 04:32:54;;;;;;;30.25;14.68;;;6.60;99.90;;;;;;5066649;28;20052;-82
2024/01/01 04:35:23;;;;;;;31.70;14.73;;;6.50;99.90;;;;;;5076384;28;20079;-82
2024/01/01 04:37:51;;;;;;;30.15;14.95;;;6.50;99.90;;;;;;5077653;28;20055;-82
2024/01/01 04:40:20;;;;;;;32.20;15.52;;;6.50;99.90;;;;;;5102046;27;20597;-83
2024/01/01 04:42:50;;;;;;;30.90;15.60;;;6.50;99.90;;;;;;5077412;28;20616;-82
2024/01/01 04:45:22;;;;;;;29.70;16.45;;;6.50;99.90;;;;;;5075958;27;20537;-80
2024/01/01 04:47:51;;;;;;;37.28;17.30;;;6.40;99.90;;;;;;5069738;28;20059;-81
2024/01/01 04:50:19;;;;;;;32.40;16.58;;;6.40;99.90;;;;;;5069632;28;20114;-79
2024/01/01 04:52:48;;;;;;;36.58;16.27;;;6.50;99.90;;;;;;5082745;27;20189;-81
2024/01/01 04:55:16;;;;;;;35.55;16.13;;;6.50;99.90;;;;;;5096672;27;20152;-80
2024/01/01 04:57:45;;;;;;;34.38;16.52;;;6.50;99.90;;;;;;5070797;27;20104;-81
2024/01/01 05:00:16;;;;;;;36.95;16.17;;;6.50;99.90;;;;;;5071150;27;20047;-80
2024/01/01 05:02:44;;;;;;;46.92;18.88;;;6.50;99.90;;;;;;5082517;27;20633;-80
2024/01/01 05:05:13;;;;;;;34.03;15.15;;;6.50;99.90;;;;;;5088893;27;20663;-80
2024/01/01 05:07:41;;;;;;;36.58;17.48;;;6.50;99.90;;;;;;5087340;27;20064;-81
2024/01/01 05:10:11;;;;;;;43.88;21.17;;;6.40;99.90;;;;;;5085118;27;22481;-80
2024/01/01 05:12:40;;;;;;;46.08;21.15;;;6.40;99.90;;;;;;5088644;27;20052;-81
2024/01/01 05:15:12;;;;;;;39.42;18.13;;;6.40;99.90;;;;;;5096449;27;20058;-80
2024/01/01 05:17:41;;;;;;;37.58;18.45;;;6.40;99.90;;;;;;5067129;27;20059;-80
2024/01/01 05:20:10;;;;;;;34.97;15.60;;;6.30;99.90;;;;;;5070840;28;20397;-79
2024/01/01 05:22:40;;;;;;;31.70;13.38;;;6.30;99.90;;;;;;5082315;27;20056;-79
2024/01/01 05:25:09;;;;;;;27.80;13.13;;;6.20;99.90;;;;;;5090262;27;20059;-79
2024/01/01 05:27:37;;;;;;;31.13;12.80;;;6.10;99.90;;;;;;5086142;27;20146;-79
2024/01/01 05:30:08;;;;;;;35.90;13.55;;;6.10;99.90;;;;;;5090783;27;21243;-78
2024/01/01 05:32:36;;;;;;;30.00;13.25;;;6.00;99.90;;;;;;5079735;28;20048;-78
2024/01/01 05:35:07;;;;;;;32.95;14.88;;;6.00;99.90;;;;;;5094801;27;20059;-78
2024/01/01 05:37:36;;;;;;;36.42;15.38;;;6.00;99.90;;;;;;5096743;27;20059;-77
2024/01/01 05:40:04;;;;;;;38.25;14.45;;;5.90;99.90;;;;;;5100231;27;20154;-78
2024/01/01 05:42:34;;;;;;;32.60;13.43;;;5.90;99.90;;;;;;5118021;27;20048;-77
2024/01/01 05:45:03;;;;;;;30.45;14.30;;;5.90;99.90;;;;;;5106066;27;20047;-78
2024/01/01 05:47:31;;;;;;;32.85;13.48;;;5.80;99.90;;;;;;5104725;27;20130;-78
2024/01/01 05:50:00;;;;;;;33.47;13.43;;;5.80;99.90;;;;;;5098003;27;20039;-78
2024/01/01 05:52:30;;;;;;;28.83;12.70;;;5.80;99.90;;;;;;5085639;27;20515;-78
2024/01/01 05:54:58;;;;;;;30.75;12.52;;;5.80;99.90;;;;;;5100703;27;20437;-78
2024/01/01 05:57:27;;;;;;;30.73;12.68;;;5.80;99.90;;;;;;5091000;28;20055;-78
2024/01/01 05:59:55;;;;;;;31.52;13.70;;;5.80;99.90;;;;;;5079909;28;20051;-78
2024/01/01 06:02:24;;;;;;;29.05;13.73;;;5.70;99.90;;;;;;5110821;27;20058;-80
2024/01/01 06:04:53;;;;;;;33.67;15.00;;;5.70;99.90;;;;;;5113060;27;20113;-79
2024/01/01 06:07:21;;;;;;;34.65;13.90;;;5.70;99.90;;;;;;5104955;27;20105;-79
2024/01/01 06:09:51;;;;;;;31.63;12.50;;;5.70;99.90;;;;;;5125985;27;20051;-78
2024/01/01 06:12:25;;;;;;;34.38;14.45;;;5.60;99.90;;;;;;5122372;27;20073;-78
2024/01/01 06:15:27;;;;;;;33.63;13.90;;;5.70;99.90;;;;;;5118694;27;20023;-79
2024/01/01 06:19:12;;;;;;;33.75;14.55;;;5.60;99.90;;;;;;5088831;28;20089;-79
2024/01/01 06:35:34;;;;;;;31.83;14.45;;;5.60;99.90;;;;;;4896170;29;20033;-79
2024/01/01 06:54:07;;;;;;;36.15;13.88;;;5.50;99.90;;;;;;4763482;29;20036;-79
2024/01/01 06:56:40;;;;;;;40.20;15.90;;;5.50;99.90;;;;;;4810633;29;20049;-79
2024/01/01 06:59:10;;;;;;;36.30;16.25;;;5.40;99.90;;;;;;4855370;29;20046;-78
2024/01/01 07:01:52;;;;;;;34.72;13.68;;;5.40;99.90;;;;;;4869443;29;20054;-79
2024/01/01 07:12:23;;;;;;;30.47;13.70;;;5.50;99.90;;;;;;5412480;23;20082;-78
2024/01/01 07:14:52;;;;;;;38.00;14.88;;;5.50;99.90;;;;;;4917069;29;20052;-78
2024/01/01 07:17:21;;;;;;;34.72;14.57;;;5.40;99.90;;;;;;4908902;29;20048;-77
2024/01/01 07:19:49;;;;;;;37.45;14.05;;;5.50;99.90;;;;;;4903527;29;20062;-77
2024/01/01 07:22:18;;;;;;;33.83;14.95;;;5.40;99.90;;;;;;4902315;29;20822;-77
2024/01/01 07:24:46;;;;;;;33.80;13.35;;;5.50;99.90;;;;;;4923334;29;20083;-77
2024/01/01 07:27:21;;;;;;;35.92;15.05;;;5.40;99.90;;;;;;4912217;29;20072;-77
2024/01/01 07:29:51;;;;;;;39.50;15.43;;;5.40;99.90;;;;;;4902504;29;20052;-77
2024/01/01 07:32:21;;;;;;;35.53;15.20;;;5.30;99.90;;;;;;4923688;29;20046;-77
2024/01/01 07:34:50;;;;;;;32.08;14.07;;;5.30;99.90;;;;;;4934080;29;20107;-77
2024/01/01 07:37:19;;;;;;;34.90;13.88;;;5.30;99.90;;;;;;4909502;29;20048;-77
2024/01/01 07:39:48;;;;;;;34.65;14.93;;;5.30;99.90;;;;;;4909347;29;20056;-77
2024/01/01 07:42:26;;;;;;;36.05;14.23;;;5.30;99.90;;;;;;4909178;29;20087;-77
2024/01/01 07:45:04;;;;;;;29.77;13.38;;;5.20;99.90;;;;;;4927193;29;20079;-77
2024/01/01 07:47:33;;;;;;;35.95;14.35;;;5.10;99.90;;;;;;4916344;29;20067;-77
2024/01/01 07:50:02;;;;;;;35.22;14.70;;;5.10;99.90;;;;;;4910555;29;20047;-77
2024/01/01 07:52:33;;;;;;;34.20;15.00;;;5.10;99.90;;;;;;4925604;29;20068;-76
2024/01/01 07:55:06;;;;;;;32.78;13.77;;;5.10;99.90;;;;;;4914777;29;20059;-77
2024/01/01 07:57:42;;;;;;;27.90;12.10;;;4.20;99.90;;;;;;4874632;29;20056;-77
2024/01/01 08:00:15;;;;;;;27.73;12.13;;;5.70;99.90;;;;;;4915187;29;20062;-77
2024/01/01 08:02:47;;;;;;;28.92;11.63;;;5.00;99.90;;;;;;4915934;29;20048;-77
2024/01/01 08:05:18;;;;;;;30.92;11.80;;;5.00;99.90;;;;;;4927412;29;20066;-78
2024/01/01 08:07:51;;;;;;;28.20;11.55;;;5.10;99.90;;;;;;4912351;29;20128;-78
2024/01/01 08:10:24;;;;;;;27.40;11.45;;;4.90;99.90;;;;;;4940158;29;20064;-77
2024/01/01 08:16:21;;;;;;;24.13;10.40;;;5.10;99.90;;;;;;4808940;29;20060;-77
2024/01/01 08:22:24;;;;;;;23.55;10.70;;;5.00;99.90;;;;;;4830086;29;20047;-77
2024/01/01 08:25:13;;;;;;;24.80;12.60;;;4.80;99.90;;;;;;4812276;29;20058;-78
2024/01/01 08:28:17;;;;;;;23.23;9.93;;;4.90;99.90;;;;;;4788844;30;20123;-77
2024/01/01 08:31:16;;;;;;;20.25;8.25;;;5.10;99.90;;;;;;4773873;30;20182;-78
2024/01/01 08:35:22;;;;;;;22.17;9.07;;;4.90;99.90;;;;;;4726282;30;20121;-78
2024/01/01 08:37:55;;;;;;;16.60;7.85;;;5.00;99.90;;;;;;4716123;30;20061;-77
2024/01/01 08:40:57;;;;;;;18.73;7.30;;;5.00;99.90;;;;;;4705302;30;20057;-78
2024/01/01 08:55:56;;;;;;;14.05;5.50;;;5.10;99.90;;;;;;4701904;30;20562;-78
2024/01/01 08:58:34;;;;;;;12.00;4.72;;;5.30;99.90;;;;;;4726131;30;20468;-77
2024/01/01 09:07:30;;;;;;;25.08;13.20;;;5.10;99.90;;;;;;4818706;29;20041;-78
2024/01/01 09:10:27;;;;;;;9.05;4.93;;;5.70;99.90;;;;;;4859166;29;20030;-78
2024/01/01 09:16:32;;;;;;;6.28;3.90;;;5.50;99.90;;;;;;4825944;29;20141;-77
2024/01/01 09:20:00;;;;;;;5.80;3.08;;;5.30;99.90;;;;;;4771332;30;20067;-77
2024/01/01 09:22:57;;;;;;;6.93;2.83;;;5.40;99.90;;;;;;4806214;29;20047;-77
2024/01/01 09:25:40;;;;;;;5.32;1.80;;;5.40;99.90;;;;;;4812751;29;20074;-77
2024/01/01 09:28:41;;;;;;;6.22;2.42;;;5.40;99.90;;;;;;4787121;30;20157;-77
2024/01/01 09:31:27;;;;;;;6.35;2.30;;;5.40;99.90;;;;;;4777762;30;20056;-77
2024/01/01 09:34:07;;;;;;;4.93;1.63;;;5.40;99.90;;;;;;4766995;30;20067;-77
2024/01/01 09:36:38;;;;;;;3.25;0.90;;;5.60;99.90;;;;;;4763743;30;20060;-77
2024/01/01 09:39:56;;;;;;;2.30;0.55;;;5.90;99.90;;;;;;4777189;30;20039;-77
2024/01/01 09:42:32;;;;;;;1.75;0.90;;;6.10;99.90;;;;;;4812507;29;20055;-76
2024/01/01 09:45:06;;;;;;;58.22;27.70;;;6.20;99.90;;;;;;4828157;29;20536;-77
2024/01/01 09:48:06;;;;;;;27.27;16.65;;;6.40;99.90;;;;;;4847649;29;20148;-78
2024/01/01 09:51:25;;;;;;;3.53;1.63;;;6.10;99.90;;;;;;4848008;29;20054;-77
2024/01/01 09:54:07;;;;;;;2.58;1.30;;;6.30;99.90;;;;;;4749921;30;20063;-78
2024/01/01 09:56:47;;;;;;;3.22;1.85;;;6.20;99.90;;;;;;4785597;30;20056;-78
2024/01/01 10:05:21;;;;;;;9.07;4.25;;;5.90;99.90;;;;;;4804266;29;20070;-78
2024/01/01 10:07:52;;;;;;;4.82;3.00;;;6.50;99.90;;;;;;4797453;29;20054;-77
2024/01/01 10:10:28;;;;;;;4.55;1.00;;;6.40;99.90;;;;;;4795276;29;20157;-77
2024/01/01 10:13:13;;;;;;;14.45;4.72;;;6.60;99.90;;;;;;4821601;29;20062;-77
2024/01/01 10:15:45;;;;;;;73.97;41.45;;;6.60;99.90;;;;;;4787892;29;20066;-78
2024/01/01 10:18:40;;;;;;;8.25;3.72;;;6.60;99.90;;;;;;4827318;29;22946;-77
2024/01/01 10:21:12;;;;;;;4.47;1.73;;;6.50;99.90;;;;;;4811372;29;20504;-77
2024/01/01 10:23:43;;;;;;;3.53;1.10;;;6.60;99.90;;;;;;4805200;29;20076;-77
2024/01/01 10:26:13;;;;;;;4.20;1.30;;;6.70;99.90;;;;;;4819979;29;20145;-77
2024/01/01 10:28:52;;;;;;;2.40;1.10;;;6.80;99.90;;;;;;4819161;29;20060;-76
2024/01/01 10:31:26;;;;;;;3.28;1.15;;;6.90;99.90;;;;;;4842043;29;20702;-76
2024/01/01 10:34:16;;;;;;;2.25;0.73;;;6.90;99.90;;;;;;4834463;29;20070;-76
2024/01/01 10:36:50;;;;;;;3.67;0.70;;;6.90;99.90;;;;;;4834678;29;20489;-77
2024/01/01 10:39:31;;;;;;;3.75;1.60;;;6.90;99.90;;;;;;4837853;29;20082;-77
2024/01/01 10:42:15;;;;;;;5.30;2.40;;;6.90;99.90;;;;;;4831435;29;20042;-77
2024/01/01 10:44:44;;;;;;;;;;;6.90;99.90;;;;;;4837133;29;20040;-77
2024/01/01 10:47:18;;;;;;;3.83;2.58;;;6.90;99.90;;;;;;4872958;29;19951;-78
2024/01/01 10:53:02;;;;;;;4.90;2.03;;;6.80;99.90;;;;;;4868893;29;20089;-77
2024/01/01 10:55:53;;;;;;;10.77;5.20;;;6.90;99.90;;;;;;4851995;29;20050;-78
2024/01/01 10:59:15;;;;;;;5.03;2.08;;;7.00;99.90;;;;;;4876021;29;20059;-76
2024/01/01 11:02:01;;;;;;;10.25;2.38;;;7.10;99.90;;;;;;4865962;29;20061;-77
2024/01/01 11:04:31;;;;;;;1.73;0.98;;;7.20;99.90;;;;;;4857098;29;20165;-78
2024/01/01 11:07:02;;;;;;;3.55;1.30;;;7.40;99.90;;;;;;4865422;29;20053;-77
2024/01/01 11:09:34;;;;;;;2.88;1.60;;;7.50;99.90;;;;;;4865574;29;20568;-79
2024/01/01 11:12:05;;;;;;;3.58;1.50;;;7.70;99.90;;;;;;4845472;29;20081;-79
2024/01/01 11:14:38;;;;;;;3.80;1.20;;;7.70;99.90;;;;;;4854579;29;20053;-80
2024/01/01 11:17:07;;;;;;;4.65;1.63;;;7.80;99.90;;;;;;4850627;29;20138;-78
2024/01/01 11:19:43;;;;;;;4.43;1.98;;;7.90;99.90;;;;;;4840278;29;20282;-79
2024/01/01 11:22:31;;;;;;;11.10;4.22;;;8.10;99.90;;;;;;4864710;29;20075;-81
2024/01/01 11:25:03;;;;;;;10.95;8.10;;;8.20;99.90;;;;;;4856570;29;20061;-78
2024/01/01 11:27:54;;;;;;;5.10;0.77;;;8.00;99.90;;;;;;4883482;29;20064;-77
2024/01/01 11:30:25;;;;;;;8.75;6.25;;;8.00;99.90;;;;;;4861876;29;20233;-80
2024/01/01 11:33:06;;;;;;;4.70;1.83;;;8.10;99.90;;;;;;4867159;29;20052;-78
2024/01/01 11:35:38;;;;;;;6.38;2.20;;;8.20;99.90;;;;;;4865034;29;20048;-78
2024/01/01 11:38:07;;;;;;;6.17;2.50;;;8.20;99.90;;;;;;4870996;29;20057;-79
2024/01/01 11:40:36;;;;;;;6.57;2.78;;;8.40;99.90;;;;;;4849380;29;20129;-77
2024/01/01 11:43:09;;;;;;;3.42;1.27;;;8.60;99.90;;;;;;4869455;29;20614;-79
2024/01/01 11:45:41;;;;;;;3.67;1.88;;;8.60;99.90;;;;;;4848262;29;20048;-79
2024/01/01 11:48:30;;;;;;;3.40;1.40;;;8.70;99.90;;;;;;4885847;29;20409;-78
2024/01/01 11:51:04;;;;;;;4.32;1.40;;;8.50;99.90;;;;;;4891499;29;20429;-79
2024/01/01 11:53:41;;;;;;;4.15;2.00;;;8.50;99.90;;;;;;4906097;29;20470;-79
2024/01/01 11:56:11;;;;;;;3.17;1.13;;;8.30;99.90;;;;;;4891373;29;20123;-80
2024/01/01 11:58:45;;;;;;;7.53;2.00;;;8.20;99.90;;;;;;4902776;29;20087;-77
2024/01/01 12:01:16;;;;;;;6.20;2.17;;;8.10;99.90;;;;;;4888808;29;20052;-77
2024/01/01 12:03:45;;;;;;;4.40;1.27;;;8.20;99.90;;;;;;4915834;29;20152;-78
2024/01/01 12:06:25;;;;;;;3.22;1.33;;;8.30;99.90;;;;;;4886833;29;20059;-77
2024/01/01 12:09:06;;;;;;;7.18;3.95;;;8.30;99.90;;;;;;4900053;29;20518;-78
2024/01/01 12:11:41;;;;;;;5.82;2.28;;;8.30;99.90;;;;;;4894894;29;20064;-79
2024/01/01 12:14:25;;;;;;;4.75;2.10;;;8.30;99.90;;;;;;4899271;29;20065;-80
2024/01/01 12:16:57;;;;;;;5.10;1.73;;;8.20;99.90;;;;;;4897333;29;20067;-79
2024/01/01 12:19:26;;;;;;;4.20;2.05;;;8.10;99.90;;;;;;4875675;29;20056;-80
2024/01/01 12:21:55;;;;;;;6.03;3.13;;;8.20;99.90;;;;;;4896212;29;20052;-82
2024/01/01 12:24:25;;;;;;;6.82;2.28;;;8.30;99.90;;;;;;4870676;29;20044;-79
2024/01/01 12:27:02;;;;;;;5.63;2.20;;;8.30;99.90;;;;;;4875687;29;20056;-81
2024/01/01 12:29:57;;;;;;;7.40;2.03;;;8.30;99.90;;;;;;4909467;29;20063;-80
2024/01/01 12:32:28;;;;;;;5.13;2.45;;;8.30;99.90;;;;;;4893972;29;20084;-79
2024/01/01 12:35:01;;;;;;;5.30;2.00;;;8.30;99.90;;;;;;4878104;29;20104;-82
2024/01/01 12:37:30;;;;;;;6.35;2.28;;;8.30;99.90;;;;;;4891179;29;20128;-81
2024/01/01 12:40:14;;;;;;;6.00;1.23;;;8.30;99.90;;;;;;4875416;29;20052;-79
2024/01/01 12:42:45;;;;;;;5.97;1.95;;;8.40;99.90;;;;;;4882196;29;20056;-76
2024/01/01 12:45:16;;;;;;;4.57;1.40;;;8.40;99.90;;;;;;4888287;29;20136;-79
2024/01/01 12:47:48;;;;;;;4.85;1.80;;;8.30;99.90;;;;;;4880350;29;20101;-81
2024/01/01 12:50:17;;;;;;;7.68;2.30;;;8.30;99.90;;;;;;4862461;29;20248;-84
2024/01/01 12:52:46;;;;;;;8.45;3.80;;;8.20;99.90;;;;;;4869258;29;20068;-79
2024/01/01 12:55:15;;;;;;;10.82;5.63;;;8.30;99.90;;;;;;4872164;29;20812;-80
2024/01/01 12:57:46;;;;;;;8.80;5.32;;;8.30;99.90;;;;;;4843044;29;20465;-79
2024/01/01 13:00:21;;;;;;;6.60;1.90;;;8.40;99.90;;;;;;4860387;29;20060;-80
2024/01/01 13:02:52;;;;;;;6.38;2.60;;;8.30;99.90;;;;;;4871685;29;20083;-84
2024/01/01 13:05:21;;;;;;;7.65;4.35;;;8.30;99.90;;;;;;4862985;29;20478;-82
2024/01/01 13:07:50;;;;;;;7.78;3.10;;;8.30;99.90;;;;;;4878907;29;20052;-81
2024/01/01 13:10:21;;;;;;;7.35;2.38;;;8.30;99.90;;;;;;4868897;29;20421;-82
2024/01/01 13:12:51;;;;;;;8.30;3.20;;;8.20;99.90;;;;;;4860807;29;20635;-82
2024/01/01 13:15:21;;;;;;;9.52;4.25;;;8.20;99.90;;;;;;4874324;29;20084;-82
2024/01/01 13:17:50;;;;;;;9.25;3.33;;;8.10;99.90;;;;;;4890012;29;20071;-80
2024/01/01 13:20:19;;;;;;;8.48;3.08;;;8.10;99.90;;;;;;4899540;29;20056;-84
2024/01/01 13:22:48;;;;;;;6.82;2.90;;;8.10;99.90;;;;;;4886367;29;20052;-85
2024/01/01 13:25:26;;;;;;;5.15;2.58;;;8.10;99.90;;;;;;4876850;29;20091;-84
2024/01/01 13:27:57;;;;;;;12.80;8.65;;;8.10;99.90;;;;;;4886753;29;20052;-83
2024/01/01 13:30:33;;;;;;;6.47;2.72;;;8.00;99.90;;;;;;4878560;29;20048;-83
2024/01/01 13:33:04;;;;;;;7.65;2.72;;;8.00;99.90;;;;;;4894101;29;20864;-83
2024/01/01 13:35:40;;;;;;;8.85;3.50;;;7.90;99.90;;;;;;4881115;29;20041;-76
2024/01/01 13:38:09;;;;;;;13.02;6.60;;;7.90;99.90;;;;;;4874298;29;20100;-80
2024/01/01 13:40:40;;;;;;;8.55;3.65;;;7.90;99.90;;;;;;4897535;29;20061;-79
2024/01/01 13:43:14;;;;;;;9.60;5.07;;;7.80;99.90;;;;;;4898637;29;20071;-79
2024/01/01 13:45:59;;;;;;;9.45;4.00;;;7.90;99.90;;;;;;4889536;29;20044;-77
2024/01/01 13:48:29;;;;;;;11.43;4.55;;;7.90;99.90;;;;;;4892254;29;20112;-77
2024/01/01 13:51:09;;;;;;;9.10;4.38;;;7.90;99.90;;;;;;4910911;29;20052;-83
2024/01/01 13:53:45;;;;;;;8.13;3.95;;;7.20;99.90;;;;;;4889006;29;20143;-78
2024/01/01 13:56:22;;;;;;;7.97;2.85;;;8.00;99.90;;;;;;4890269;29;20535;-81
2024/01/01 13:58:50;;;;;;;10.82;4.38;;;7.90;99.90;;;;;;4890024;29;20064;-82
2024/01/01 14:01:20;;;;;;;10.23;4.05;;;7.90;99.90;;;;;;4883976;29;20127;-81
2024/01/01 14:03:51;;;;;;;12.52;5.53;;;7.90;99.90;;;;;;4868259;29;20067;-81
2024/01/01 14:06:21;;;;;;;11.55;4.65;;;7.80;99.90;;;;;;4878837;29;20132;-81
2024/01/01 14:08:56;;;;;;;9.70;4.85;;;7.90;99.90;;;;;;4894632;29;20072;-78
2024/01/01 14:11:29;;;;;;;17.35;8.63;;;7.90;99.90;;;;;;4880866;29;20056;-80
2024/01/01 14:13:59;;;;;;;10.18;4.00;;;7.80;99.90;;;;;;4878424;29;20056;-79
2024/01/01 14:16:30;;;;;;;9.77;3.90;;;7.80;99.90;;;;;;4879536;29;20147;-78
2024/01/01 14:19:03;;;;;;;9.15;4.20;;;7.80;99.90;;;;;;4902642;29;20054;-78
2024/01/01 14:21:33;;;;;;;11.07;4.25;;;7.80;99.90;;;;;;4883894;29;20059;-78
2024/01/01 14:24:02;;;;;;;12.05;5.55;;;7.70;99.90;;;;;;4899690;29;20063;-81
2024/01/01 14:26:32;;;;;;;14.38;6.93;;;7.70;99.90;;;;;;4903148;29;20580;-77
2024/01/01 14:29:01;;;;;;;28.70;15.90;;;7.60;99.90;;;;;;4897523;29;20067;-78
2024/01/01 14:31:35;;;;;;;59.28;31.52;;;7.60;99.90;;;;;;4887740;29;20064;-79
2024/01/01 14:34:05;;;;;;;18.13;10.63;;;7.60;99.90;;;;;;4892117;29;20549;-78
2024/01/01 14:36:34;;;;;;;11.55;5.63;;;7.50;99.90;;;;;;4903610;29;20056;-80
2024/01/01 14:39:04;;;;;;;12.73;5.05;;;7.20;99.90;;;;;;4896415;29;20061;-78